EDDG/FMO METAR and TAF weather

Enter ICAO airport designator
Station Type Date Time Source
EDDG METAR 2024/06/14 02:20 UTC NOAA

EDDG 140220Z AUTO 13004KT 080V170 CAVOK 13/07 Q1009 NOSIG


Station Type Date Time Source
EDDG Decoded METAR 2024/06/14 02:20 UTC NOAA

Muenster / Osnabrueck, Germany (EDDG) 52-08N 007-42E 53M
Jun 13, 2024 - 10:20 PM EDT / 2024.06.14 0220 UTC
Wind: from the SE (130 degrees) at 5 MPH (4 KT) (direction variable):0
Visibility: greater than 7 mile(s):0
Temperature: 55 F (13 C)
Dew Point: 44 F (7 C)
Relative Humidity: 66%
Pressure (altimeter): 29.80 in. Hg (1009 hPa)
ob: EDDG 140220Z AUTO 13004KT 080V170 CAVOK 13/07 Q1009 NOSIG
cycle: 2

Station Type Date Time Source
EDDG TAF 2024/06/13 18:27 UTC NOAA